sensor_id;sensor_type;location;lat;lon;timestamp;P1;durP1;ratioP1;P2;durP2;ratioP2
19905;SDS011;10115;50.906;4.438;2022-08-05T00:01:32;3.10;;;2.83;;
19905;SDS011;10115;50.906;4.438;2022-08-05T00:03:58;5.50;;;3.00;;
19905;SDS011;10115;50.906;4.438;2022-08-05T00:06:24;10.00;;;4.10;;
19905;SDS011;10115;50.906;4.438;2022-08-05T00:08:49;4.03;;;3.20;;
19905;SDS011;10115;50.906;4.438;2022-08-05T00:11:15;6.07;;;3.50;;
19905;SDS011;10115;50.906;4.438;2022-08-05T00:13:42;4.97;;;3.93;;
19905;SDS011;10115;50.906;4.438;2022-08-05T00:16:09;4.27;;;3.03;;
19905;SDS011;10115;50.906;4.438;2022-08-05T00:18:36;2.80;;;2.60;;
19905;SDS011;10115;50.906;4.438;2022-08-05T00:21:02;3.33;;;3.03;;
19905;SDS011;10115;50.906;4.438;2022-08-05T00:23:28;4.20;;;2.83;;
19905;SDS011;10115;50.906;4.438;2022-08-05T00:25:54;3.93;;;2.60;;
19905;SDS011;10115;50.906;4.438;2022-08-05T00:28:20;8.23;;;3.47;;
19905;SDS011;10115;50.906;4.438;2022-08-05T00:30:45;3.10;;;2.80;;
19905;SDS011;10115;50.906;4.438;2022-08-05T00:33:11;3.17;;;2.83;;
19905;SDS011;10115;50.906;4.438;2022-08-05T00:35:37;6.13;;;3.13;;
19905;SDS011;10115;50.906;4.438;2022-08-05T00:38:02;7.80;;;3.23;;
19905;SDS011;10115;50.906;4.438;2022-08-05T00:40:28;4.73;;;3.77;;
19905;SDS011;10115;50.906;4.438;2022-08-05T00:42:58;12.17;;;2.90;;
19905;SDS011;10115;50.906;4.438;2022-08-05T00:45:25;3.90;;;2.90;;
19905;SDS011;10115;50.906;4.438;2022-08-05T00:47:51;6.00;;;2.77;;
19905;SDS011;10115;50.906;4.438;2022-08-05T00:50:17;4.77;;;3.07;;
19905;SDS011;10115;50.906;4.438;2022-08-05T00:52:43;3.90;;;3.50;;
19905;SDS011;10115;50.906;4.438;2022-08-05T00:55:08;3.70;;;2.93;;
19905;SDS011;10115;50.906;4.438;2022-08-05T00:57:34;3.83;;;3.23;;
19905;SDS011;10115;50.906;4.438;2022-08-05T00:59:59;4.00;;;3.23;;
19905;SDS011;10115;50.906;4.438;2022-08-05T01:02:25;6.73;;;3.60;;
19905;SDS011;10115;50.906;4.438;2022-08-05T01:04:51;4.47;;;3.20;;
19905;SDS011;10115;50.906;4.438;2022-08-05T01:07:17;11.47;;;3.93;;
19905;SDS011;10115;50.906;4.438;2022-08-05T01:09:42;6.07;;;3.43;;
19905;SDS011;10115;50.906;4.438;2022-08-05T01:12:10;2.27;;;2.17;;
19905;SDS011;10115;50.906;4.438;2022-08-05T01:20:18;4.17;;;3.10;;
19905;SDS011;10115;50.906;4.438;2022-08-05T01:28:46;11.33;;;3.33;;
19905;SDS011;10115;50.906;4.438;2022-08-05T01:31:21;8.40;;;3.53;;
19905;SDS011;10115;50.906;4.438;2022-08-05T01:33:57;2.50;;;2.30;;
19905;SDS011;10115;50.906;4.438;2022-08-05T01:36:28;4.30;;;3.10;;
19905;SDS011;10115;50.906;4.438;2022-08-05T01:38:58;4.93;;;3.70;;
19905;SDS011;10115;50.906;4.438;2022-08-05T01:41:24;3.47;;;2.93;;
19905;SDS011;10115;50.906;4.438;2022-08-05T01:43:54;3.67;;;2.67;;
19905;SDS011;10115;50.906;4.438;2022-08-05T01:46:21;5.63;;;3.23;;
19905;SDS011;10115;50.906;4.438;2022-08-05T01:48:48;4.03;;;3.63;;
19905;SDS011;10115;50.906;4.438;2022-08-05T01:51:16;5.80;;;3.63;;
19905;SDS011;10115;50.906;4.438;2022-08-05T01:53:43;5.83;;;3.23;;
19905;SDS011;10115;50.906;4.438;2022-08-05T01:56:12;5.83;;;3.27;;
19905;SDS011;10115;50.906;4.438;2022-08-05T01:58:40;3.30;;;3.00;;
19905;SDS011;10115;50.906;4.438;2022-08-05T02:01:07;9.13;;;4.07;;
19905;SDS011;10115;50.906;4.438;2022-08-05T02:03:35;5.17;;;3.57;;
19905;SDS011;10115;50.906;4.438;2022-08-05T02:06:04;4.27;;;3.47;;
19905;SDS011;10115;50.906;4.438;2022-08-05T02:08:32;5.20;;;3.70;;
19905;SDS011;10115;50.906;4.438;2022-08-05T02:11:01;4.13;;;2.87;;
19905;SDS011;10115;50.906;4.438;2022-08-05T02:13:38;8.63;;;3.50;;
19905;SDS011;10115;50.906;4.438;2022-08-05T02:23:40;5.93;;;3.70;;
19905;SDS011;10115;50.906;4.438;2022-08-05T02:26:09;4.17;;;3.73;;
19905;SDS011;10115;50.906;4.438;2022-08-05T02:28:38;8.20;;;4.03;;
19905;SDS011;10115;50.906;4.438;2022-08-05T02:31:16;5.43;;;3.73;;
19905;SDS011;10115;50.906;4.438;2022-08-05T02:33:48;3.87;;;2.90;;
19905;SDS011;10115;50.906;4.438;2022-08-05T02:36:16;4.80;;;3.10;;
19905;SDS011;10115;50.906;4.438;2022-08-05T02:38:47;3.73;;;3.27;;
19905;SDS011;10115;50.906;4.438;2022-08-05T02:41:14;7.30;;;3.40;;
19905;SDS011;10115;50.906;4.438;2022-08-05T02:43:41;4.23;;;3.27;;
19905;SDS011;10115;50.906;4.438;2022-08-05T02:46:08;7.77;;;4.03;;
19905;SDS011;10115;50.906;4.438;2022-08-05T02:48:39;4.30;;;3.90;;
19905;SDS011;10115;50.906;4.438;2022-08-05T02:51:05;6.17;;;3.47;;
19905;SDS011;10115;50.906;4.438;2022-08-05T02:53:31;5.63;;;3.43;;
19905;SDS011;10115;50.906;4.438;2022-08-05T02:55:57;5.53;;;3.43;;
19905;SDS011;10115;50.906;4.438;2022-08-05T02:58:24;9.80;;;3.53;;
19905;SDS011;10115;50.906;4.438;2022-08-05T03:00:51;3.70;;;3.40;;
19905;SDS011;10115;50.906;4.438;2022-08-05T03:03:19;6.37;;;3.27;;
19905;SDS011;10115;50.906;4.438;2022-08-05T03:05:46;7.43;;;3.70;;
19905;SDS011;10115;50.906;4.438;2022-08-05T03:08:13;10.00;;;3.93;;
19905;SDS011;10115;50.906;4.438;2022-08-05T03:10:44;8.40;;;3.83;;
19905;SDS011;10115;50.906;4.438;2022-08-05T03:13:10;7.20;;;3.97;;
19905;SDS011;10115;50.906;4.438;2022-08-05T03:15:40;10.57;;;4.33;;
19905;SDS011;10115;50.906;4.438;2022-08-05T03:18:09;12.27;;;4.13;;
19905;SDS011;10115;50.906;4.438;2022-08-05T03:20:35;14.37;;;4.57;;
19905;SDS011;10115;50.906;4.438;2022-08-05T03:23:01;4.50;;;3.37;;
19905;SDS011;10115;50.906;4.438;2022-08-05T03:25:30;12.90;;;4.60;;
19905;SDS011;10115;50.906;4.438;2022-08-05T03:27:57;10.97;;;3.83;;
19905;SDS011;10115;50.906;4.438;2022-08-05T03:30:23;10.43;;;4.33;;
19905;SDS011;10115;50.906;4.438;2022-08-05T03:32:51;9.00;;;4.67;;
19905;SDS011;10115;50.906;4.438;2022-08-05T03:35:19;5.47;;;3.90;;
19905;SDS011;10115;50.906;4.438;2022-08-05T03:37:46;14.03;;;4.07;;
19905;SDS011;10115;50.906;4.438;2022-08-05T03:40:11;8.20;;;4.03;;
19905;SDS011;10115;50.906;4.438;2022-08-05T03:42:37;5.30;;;3.97;;
19905;SDS011;10115;50.906;4.438;2022-08-05T03:45:05;8.67;;;3.70;;
19905;SDS011;10115;50.906;4.438;2022-08-05T03:47:31;6.87;;;4.13;;
19905;SDS011;10115;50.906;4.438;2022-08-05T03:49:57;10.93;;;4.57;;
19905;SDS011;10115;50.906;4.438;2022-08-05T03:52:27;20.90;;;4.60;;
19905;SDS011;10115;50.906;4.438;2022-08-05T03:54:58;7.27;;;4.57;;
19905;SDS011;10115;50.906;4.438;2022-08-05T03:57:28;4.53;;;4.07;;
19905;SDS011;10115;50.906;4.438;2022-08-05T04:00:04;9.50;;;4.27;;
19905;SDS011;10115;50.906;4.438;2022-08-05T04:02:33;8.27;;;4.80;;
19905;SDS011;10115;50.906;4.438;2022-08-05T04:05:00;5.40;;;4.00;;
19905;SDS011;10115;50.906;4.438;2022-08-05T04:07:28;8.67;;;3.87;;
19905;SDS011;10115;50.906;4.438;2022-08-05T04:09:54;4.73;;;4.23;;
19905;SDS011;10115;50.906;4.438;2022-08-05T04:12:21;7.97;;;4.20;;
19905;SDS011;10115;50.906;4.438;2022-08-05T04:14:47;12.20;;;3.97;;
19905;SDS011;10115;50.906;4.438;2022-08-05T04:17:13;8.53;;;4.20;;
19905;SDS011;10115;50.906;4.438;2022-08-05T04:19:42;8.33;;;4.50;;
19905;SDS011;10115;50.906;4.438;2022-08-05T04:22:11;10.10;;;4.97;;
19905;SDS011;10115;50.906;4.438;2022-08-05T04:24:41;6.10;;;4.03;;
19905;SDS011;10115;50.906;4.438;2022-08-05T04:27:09;10.77;;;4.63;;
19905;SDS011;10115;50.906;4.438;2022-08-05T04:29:35;7.03;;;4.70;;
19905;SDS011;10115;50.906;4.438;2022-08-05T04:32:01;14.40;;;5.13;;
19905;SDS011;10115;50.906;4.438;2022-08-05T04:34:27;4.33;;;3.80;;
19905;SDS011;10115;50.906;4.438;2022-08-05T04:36:53;6.37;;;4.23;;
19905;SDS011;10115;50.906;4.438;2022-08-05T04:39:18;4.53;;;4.13;;
19905;SDS011;10115;50.906;4.438;2022-08-05T04:41:45;5.87;;;4.47;;
19905;SDS011;10115;50.906;4.438;2022-08-05T04:44:11;9.90;;;4.27;;
19905;SDS011;10115;50.906;4.438;2022-08-05T04:46:37;6.77;;;3.60;;
19905;SDS011;10115;50.906;4.438;2022-08-05T04:49:04;9.83;;;3.70;;
19905;SDS011;10115;50.906;4.438;2022-08-05T04:51:30;6.00;;;4.53;;
19905;SDS011;10115;50.906;4.438;2022-08-05T04:53:56;7.30;;;4.70;;
19905;SDS011;10115;50.906;4.438;2022-08-05T04:56:25;4.20;;;3.80;;
19905;SDS011;10115;50.906;4.438;2022-08-05T04:58:51;10.57;;;4.17;;
19905;SDS011;10115;50.906;4.438;2022-08-05T05:01:16;7.27;;;4.73;;
19905;SDS011;10115;50.906;4.438;2022-08-05T05:03:42;10.37;;;3.97;;
19905;SDS011;10115;50.906;4.438;2022-08-05T05:06:08;7.60;;;4.17;;
19905;SDS011;10115;50.906;4.438;2022-08-05T05:08:38;4.63;;;3.77;;
19905;SDS011;10115;50.906;4.438;2022-08-05T05:11:04;12.20;;;3.37;;
19905;SDS011;10115;50.906;4.438;2022-08-05T05:13:30;5.40;;;3.17;;
19905;SDS011;10115;50.906;4.438;2022-08-05T05:15:56;7.07;;;4.10;;
19905;SDS011;10115;50.906;4.438;2022-08-05T05:18:22;12.90;;;5.10;;
19905;SDS011;10115;50.906;4.438;2022-08-05T05:20:48;5.87;;;3.60;;
19905;SDS011;10115;50.906;4.438;2022-08-05T05:23:14;7.33;;;3.97;;
19905;SDS011;10115;50.906;4.438;2022-08-05T05:25:40;6.07;;;4.50;;
19905;SDS011;10115;50.906;4.438;2022-08-05T05:28:07;5.13;;;3.97;;
19905;SDS011;10115;50.906;4.438;2022-08-05T05:30:33;10.73;;;4.30;;
19905;SDS011;10115;50.906;4.438;2022-08-05T05:32:59;12.13;;;4.83;;
19905;SDS011;10115;50.906;4.438;2022-08-05T05:35:27;5.03;;;4.00;;
19905;SDS011;10115;50.906;4.438;2022-08-05T05:37:57;12.20;;;4.20;;
19905;SDS011;10115;50.906;4.438;2022-08-05T05:40:28;6.73;;;4.77;;
19905;SDS011;10115;50.906;4.438;2022-08-05T05:42:54;5.60;;;4.07;;
19905;SDS011;10115;50.906;4.438;2022-08-05T05:45:20;5.63;;;4.10;;
19905;SDS011;10115;50.906;4.438;2022-08-05T05:47:46;13.03;;;4.17;;
19905;SDS011;10115;50.906;4.438;2022-08-05T05:50:16;4.67;;;4.00;;
19905;SDS011;10115;50.906;4.438;2022-08-05T05:52:42;6.80;;;4.43;;
19905;SDS011;10115;50.906;4.438;2022-08-05T05:55:09;7.00;;;4.03;;
19905;SDS011;10115;50.906;4.438;2022-08-05T05:57:37;13.37;;;5.03;;
19905;SDS011;10115;50.906;4.438;2022-08-05T06:00:04;5.07;;;4.03;;
19905;SDS011;10115;50.906;4.438;2022-08-05T06:02:32;9.13;;;5.23;;
19905;SDS011;10115;50.906;4.438;2022-08-05T06:04:57;7.80;;;4.17;;
19905;SDS011;10115;50.906;4.438;2022-08-05T06:07:23;5.93;;;3.87;;
19905;SDS011;10115;50.906;4.438;2022-08-05T06:09:49;6.53;;;4.27;;
19905;SDS011;10115;50.906;4.438;2022-08-05T06:12:15;5.00;;;3.33;;
19905;SDS011;10115;50.906;4.438;2022-08-05T06:14:40;8.30;;;4.83;;
19905;SDS011;10115;50.906;4.438;2022-08-05T06:17:12;10.90;;;4.00;;
19905;SDS011;10115;50.906;4.438;2022-08-05T06:19:38;11.33;;;4.80;;
19905;SDS011;10115;50.906;4.438;2022-08-05T06:22:05;6.17;;;4.53;;
19905;SDS011;10115;50.906;4.438;2022-08-05T06:24:32;8.27;;;4.30;;
19905;SDS011;10115;50.906;4.438;2022-08-05T06:26:58;7.37;;;4.37;;
19905;SDS011;10115;50.906;4.438;2022-08-05T06:29:24;10.23;;;4.10;;
19905;SDS011;10115;50.906;4.438;2022-08-05T06:31:49;8.60;;;4.50;;
19905;SDS011;10115;50.906;4.438;2022-08-05T06:34:15;8.20;;;4.50;;
19905;SDS011;10115;50.906;4.438;2022-08-05T06:36:41;9.80;;;3.90;;
19905;SDS011;10115;50.906;4.438;2022-08-05T06:39:07;7.70;;;4.30;;
19905;SDS011;10115;50.906;4.438;2022-08-05T06:41:32;6.37;;;4.07;;
19905;SDS011;10115;50.906;4.438;2022-08-05T06:43:58;10.30;;;5.20;;
19905;SDS011;10115;50.906;4.438;2022-08-05T06:46:24;9.10;;;4.23;;
19905;SDS011;10115;50.906;4.438;2022-08-05T06:48:50;9.00;;;3.60;;
19905;SDS011;10115;50.906;4.438;2022-08-05T06:51:16;5.90;;;4.30;;
19905;SDS011;10115;50.906;4.438;2022-08-05T06:53:41;6.20;;;4.07;;
19905;SDS011;10115;50.906;4.438;2022-08-05T06:56:07;6.53;;;3.83;;
19905;SDS011;10115;50.906;4.438;2022-08-05T06:58:33;8.00;;;4.40;;
19905;SDS011;10115;50.906;4.438;2022-08-05T07:00:59;8.27;;;4.83;;
19905;SDS011;10115;50.906;4.438;2022-08-05T07:03:25;11.03;;;4.07;;
19905;SDS011;10115;50.906;4.438;2022-08-05T07:05:52;7.23;;;4.00;;
19905;SDS011;10115;50.906;4.438;2022-08-05T07:08:18;6.17;;;3.67;;
19905;SDS011;10115;50.906;4.438;2022-08-05T07:10:46;4.13;;;3.77;;
19905;SDS011;10115;50.906;4.438;2022-08-05T07:13:12;4.53;;;3.67;;
19905;SDS011;10115;50.906;4.438;2022-08-05T07:15:56;14.80;;;4.67;;
19905;SDS011;10115;50.906;4.438;2022-08-05T07:18:41;7.00;;;3.77;;
19905;SDS011;10115;50.906;4.438;2022-08-05T07:21:07;8.03;;;4.20;;
19905;SDS011;10115;50.906;4.438;2022-08-05T07:23:33;4.80;;;4.23;;
19905;SDS011;10115;50.906;4.438;2022-08-05T07:25:59;6.40;;;4.53;;
19905;SDS011;10115;50.906;4.438;2022-08-05T07:28:25;6.73;;;4.50;;
19905;SDS011;10115;50.906;4.438;2022-08-05T07:30:51;3.87;;;3.43;;
19905;SDS011;10115;50.906;4.438;2022-08-05T07:33:16;9.23;;;3.77;;
19905;SDS011;10115;50.906;4.438;2022-08-05T07:35:44;6.00;;;4.33;;
19905;SDS011;10115;50.906;4.438;2022-08-05T07:38:10;4.93;;;3.23;;
19905;SDS011;10115;50.906;4.438;2022-08-05T07:40:36;4.93;;;3.47;;
19905;SDS011;10115;50.906;4.438;2022-08-05T07:43:02;4.07;;;3.63;;
19905;SDS011;10115;50.906;4.438;2022-08-05T07:45:27;11.53;;;3.50;;
19905;SDS011;10115;50.906;4.438;2022-08-05T07:47:53;23.33;;;4.50;;
19905;SDS011;10115;50.906;4.438;2022-08-05T07:50:19;6.63;;;3.20;;
19905;SDS011;10115;50.906;4.438;2022-08-05T07:52:44;9.77;;;3.03;;
19905;SDS011;10115;50.906;4.438;2022-08-05T07:55:10;6.27;;;3.50;;
19905;SDS011;10115;50.906;4.438;2022-08-05T07:57:36;5.07;;;3.23;;
19905;SDS011;10115;50.906;4.438;2022-08-05T08:00:05;3.40;;;2.97;;
19905;SDS011;10115;50.906;4.438;2022-08-05T08:02:31;4.10;;;3.30;;
19905;SDS011;10115;50.906;4.438;2022-08-05T08:04:57;5.07;;;3.23;;
19905;SDS011;10115;50.906;4.438;2022-08-05T08:07:23;4.47;;;3.13;;
19905;SDS011;10115;50.906;4.438;2022-08-05T08:09:49;10.70;;;3.60;;
19905;SDS011;10115;50.906;4.438;2022-08-05T08:12:16;7.43;;;4.00;;
19905;SDS011;10115;50.906;4.438;2022-08-05T08:14:42;3.03;;;2.73;;
19905;SDS011;10115;50.906;4.438;2022-08-05T08:17:07;14.33;;;3.87;;
19905;SDS011;10115;50.906;4.438;2022-08-05T08:19:37;6.43;;;3.43;;
19905;SDS011;10115;50.906;4.438;2022-08-05T08:22:04;4.63;;;2.37;;
19905;SDS011;10115;50.906;4.438;2022-08-05T08:24:33;3.13;;;2.93;;
19905;SDS011;10115;50.906;4.438;2022-08-05T08:27:00;10.77;;;2.87;;
19905;SDS011;10115;50.906;4.438;2022-08-05T08:29:25;4.73;;;2.40;;
19905;SDS011;10115;50.906;4.438;2022-08-05T08:31:51;3.17;;;2.30;;
19905;SDS011;10115;50.906;4.438;2022-08-05T08:34:18;2.50;;;2.30;;
19905;SDS011;10115;50.906;4.438;2022-08-05T08:36:44;3.23;;;2.57;;
19905;SDS011;10115;50.906;4.438;2022-08-05T08:39:10;3.87;;;2.47;;
19905;SDS011;10115;50.906;4.438;2022-08-05T08:41:36;5.67;;;2.70;;
19905;SDS011;10115;50.906;4.438;2022-08-05T08:44:04;4.37;;;2.67;;
19905;SDS011;10115;50.906;4.438;2022-08-05T08:46:31;4.10;;;2.20;;
19905;SDS011;10115;50.906;4.438;2022-08-05T08:48:58;4.07;;;2.03;;
19905;SDS011;10115;50.906;4.438;2022-08-05T08:51:27;3.43;;;2.20;;
19905;SDS011;10115;50.906;4.438;2022-08-05T08:53:56;2.50;;;2.17;;
19905;SDS011;10115;50.906;4.438;2022-08-05T08:56:22;4.00;;;1.93;;
19905;SDS011;10115;50.906;4.438;2022-08-05T08:58:48;3.77;;;2.03;;
19905;SDS011;10115;50.906;4.438;2022-08-05T09:01:15;3.47;;;2.40;;
19905;SDS011;10115;50.906;4.438;2022-08-05T09:03:42;5.90;;;2.10;;
19905;SDS011;10115;50.906;4.438;2022-08-05T09:06:10;2.27;;;2.13;;
19905;SDS011;10115;50.906;4.438;2022-08-05T09:08:36;7.40;;;2.77;;
19905;SDS011;10115;50.906;4.438;2022-08-05T09:11:02;2.93;;;2.00;;
19905;SDS011;10115;50.906;4.438;2022-08-05T09:13:27;6.20;;;2.20;;
19905;SDS011;10115;50.906;4.438;2022-08-05T09:15:53;5.00;;;2.10;;
19905;SDS011;10115;50.906;4.438;2022-08-05T09:18:19;6.20;;;2.40;;
19905;SDS011;10115;50.906;4.438;2022-08-05T09:20:45;5.23;;;2.13;;
19905;SDS011;10115;50.906;4.438;2022-08-05T09:23:12;1.97;;;1.87;;
19905;SDS011;10115;50.906;4.438;2022-08-05T09:25:38;3.13;;;2.00;;
19905;SDS011;10115;50.906;4.438;2022-08-05T09:28:10;3.87;;;2.40;;
19905;SDS011;10115;50.906;4.438;2022-08-05T09:30:52;2.13;;;1.93;;
19905;SDS011;10115;50.906;4.438;2022-08-05T09:33:23;7.83;;;2.70;;
19905;SDS011;10115;50.906;4.438;2022-08-05T09:35:55;3.50;;;2.10;;
19905;SDS011;10115;50.906;4.438;2022-08-05T09:38:28;7.60;;;2.93;;
19905;SDS011;10115;50.906;4.438;2022-08-05T09:41:01;9.80;;;3.17;;
19905;SDS011;10115;50.906;4.438;2022-08-05T09:43:29;3.17;;;2.87;;
19905;SDS011;10115;50.906;4.438;2022-08-05T09:45:55;2.43;;;2.23;;
19905;SDS011;10115;50.906;4.438;2022-08-05T09:48:30;6.07;;;2.50;;
19905;SDS011;10115;50.906;4.438;2022-08-05T09:51:01;2.10;;;2.00;;
19905;SDS011;10115;50.906;4.438;2022-08-05T09:53:29;2.37;;;2.20;;
19905;SDS011;10115;50.906;4.438;2022-08-05T09:56:11;2.83;;;2.63;;
19905;SDS011;10115;50.906;4.438;2022-08-05T09:58:36;8.30;;;2.93;;
19905;SDS011;10115;50.906;4.438;2022-08-05T10:01:03;2.73;;;2.47;;
19905;SDS011;10115;50.906;4.438;2022-08-05T10:03:30;2.27;;;2.10;;
19905;SDS011;10115;50.906;4.438;2022-08-05T10:06:07;5.60;;;2.37;;
19905;SDS011;10115;50.906;4.438;2022-08-05T10:08:37;4.30;;;2.20;;
19905;SDS011;10115;50.906;4.438;2022-08-05T10:11:13;2.23;;;1.97;;
19905;SDS011;10115;50.906;4.438;2022-08-05T10:13:40;4.40;;;2.13;;
19905;SDS011;10115;50.906;4.438;2022-08-05T10:16:06;11.67;;;2.53;;
19905;SDS011;10115;50.906;4.438;2022-08-05T10:18:54;4.40;;;2.50;;
19905;SDS011;10115;50.906;4.438;2022-08-05T10:21:20;3.13;;;2.83;;
19905;SDS011;10115;50.906;4.438;2022-08-05T10:23:45;2.50;;;2.30;;
19905;SDS011;10115;50.906;4.438;2022-08-05T10:26:12;2.33;;;1.80;;
19905;SDS011;10115;50.906;4.438;2022-08-05T10:28:38;3.37;;;1.80;;
19905;SDS011;10115;50.906;4.438;2022-08-05T10:31:05;4.37;;;2.77;;
19905;SDS011;10115;50.906;4.438;2022-08-05T10:33:32;8.07;;;2.27;;
19905;SDS011;10115;50.906;4.438;2022-08-05T10:35:59;2.27;;;1.83;;
19905;SDS011;10115;50.906;4.438;2022-08-05T10:38:28;9.70;;;2.40;;
19905;SDS011;10115;50.906;4.438;2022-08-05T10:44:01;1.60;;;1.50;;
19905;SDS011;10115;50.906;4.438;2022-08-05T10:49:35;1.50;;;1.50;;
19905;SDS011;10115;50.906;4.438;2022-08-05T10:52:37;2.60;;;1.60;;
19905;SDS011;10115;50.906;4.438;2022-08-05T10:55:06;1.70;;;1.60;;
19905;SDS011;10115;50.906;4.438;2022-08-05T10:57:35;6.13;;;1.70;;
19905;SDS011;10115;50.906;4.438;2022-08-05T11:00:36;1.80;;;1.40;;
19905;SDS011;10115;50.906;4.438;2022-08-05T11:05:30;2.53;;;1.50;;
19905;SDS011;10115;50.906;4.438;2022-08-05T11:10:24;1.70;;;1.60;;
19905;SDS011;10115;50.906;4.438;2022-08-05T11:12:51;2.75;;;2.28;;
19905;SDS011;10115;50.906;4.438;2022-08-05T11:15:22;2.03;;;1.67;;
19905;SDS011;10115;50.906;4.438;2022-08-05T11:17:54;2.03;;;1.70;;
19905;SDS011;10115;50.906;4.438;2022-08-05T11:20:47;2.85;;;1.85;;
19905;SDS011;10115;50.906;4.438;2022-08-05T11:28:50;3.03;;;2.17;;
19905;SDS011;10115;50.906;4.438;2022-08-05T11:31:17;1.52;;;1.52;;
19905;SDS011;10115;50.906;4.438;2022-08-05T11:36:16;2.30;;;1.60;;
19905;SDS011;10115;50.906;4.438;2022-08-05T11:41:22;6.20;;;2.33;;
19905;SDS011;10115;50.906;4.438;2022-08-05T11:46:27;4.13;;;1.77;;
19905;SDS011;10115;50.906;4.438;2022-08-05T11:48:57;3.63;;;1.40;;
19905;SDS011;10115;50.906;4.438;2022-08-05T11:51:24;1.73;;;1.60;;
19905;SDS011;10115;50.906;4.438;2022-08-05T11:53:51;2.60;;;2.20;;
19905;SDS011;10115;50.906;4.438;2022-08-05T11:56:17;2.60;;;1.50;;
19905;SDS011;10115;50.906;4.438;2022-08-05T11:58:44;5.90;;;1.97;;
19905;SDS011;10115;50.906;4.438;2022-08-05T12:01:12;3.13;;;1.73;;
19905;SDS011;10115;50.906;4.438;2022-08-05T12:03:46;1.73;;;1.63;;
19905;SDS011;10115;50.906;4.438;2022-08-05T12:06:16;2.13;;;1.80;;
19905;SDS011;10115;50.906;4.438;2022-08-05T12:08:51;3.17;;;1.83;;
19905;SDS011;10115;50.906;4.438;2022-08-05T12:11:25;12.67;;;2.10;;
19905;SDS011;10115;50.906;4.438;2022-08-05T12:16:26;1.87;;;1.63;;
19905;SDS011;10115;50.906;4.438;2022-08-05T12:18:55;2.37;;;1.60;;
19905;SDS011;10115;50.906;4.438;2022-08-05T12:26:29;2.13;;;1.60;;
19905;SDS011;10115;50.906;4.438;2022-08-05T12:28:59;1.30;;;1.30;;
19905;SDS011;10115;50.906;4.438;2022-08-05T12:31:25;1.20;;;1.20;;
19905;SDS011;10115;50.906;4.438;2022-08-05T12:33:51;1.70;;;1.60;;
19905;SDS011;10115;50.906;4.438;2022-08-05T12:36:19;1.40;;;1.30;;
19905;SDS011;10115;50.906;4.438;2022-08-05T12:38:45;4.40;;;1.73;;
19905;SDS011;10115;50.906;4.438;2022-08-05T12:41:11;3.30;;;1.33;;
19905;SDS011;10115;50.906;4.438;2022-08-05T12:43:50;4.85;;;1.55;;
19905;SDS011;10115;50.906;4.438;2022-08-05T12:46:25;1.48;;;1.30;;
19905;SDS011;10115;50.906;4.438;2022-08-05T12:48:59;10.23;;;1.48;;
19905;SDS011;10115;50.906;4.438;2022-08-05T12:51:25;2.22;;;1.27;;
19905;SDS011;10115;50.906;4.438;2022-08-05T12:53:51;1.13;;;1.02;;
19905;SDS011;10115;50.906;4.438;2022-08-05T12:56:24;1.05;;;1.00;;
19905;SDS011;10115;50.906;4.438;2022-08-05T13:01:35;4.47;;;1.40;;
19905;SDS011;10115;50.906;4.438;2022-08-05T13:04:04;2.00;;;1.73;;
19905;SDS011;10115;50.906;4.438;2022-08-05T13:06:30;1.13;;;1.13;;
19905;SDS011;10115;50.906;4.438;2022-08-05T13:08:56;2.30;;;1.20;;
19905;SDS011;10115;50.906;4.438;2022-08-05T13:11:22;3.90;;;1.33;;
19905;SDS011;10115;50.906;4.438;2022-08-05T13:13:55;2.27;;;1.20;;
19905;SDS011;10115;50.906;4.438;2022-08-05T13:16:21;2.20;;;1.40;;
19905;SDS011;10115;50.906;4.438;2022-08-05T13:18:50;0.85;;;0.85;;
19905;SDS011;10115;50.906;4.438;2022-08-05T13:21:16;1.13;;;1.13;;
19905;SDS011;10115;50.906;4.438;2022-08-05T13:23:42;2.67;;;1.13;;
19905;SDS011;10115;50.906;4.438;2022-08-05T13:26:08;1.10;;;1.10;;
19905;SDS011;10115;50.906;4.438;2022-08-05T13:28:34;1.10;;;1.08;;
19905;SDS011;10115;50.906;4.438;2022-08-05T13:30:59;8.63;;;1.00;;
19905;SDS011;10115;50.906;4.438;2022-08-05T13:33:25;3.53;;;1.65;;
19905;SDS011;10115;50.906;4.438;2022-08-05T13:35:51;3.37;;;1.10;;
19905;SDS011;10115;50.906;4.438;2022-08-05T13:38:16;2.20;;;1.20;;
19905;SDS011;10115;50.906;4.438;2022-08-05T13:40:42;2.47;;;1.03;;
19905;SDS011;10115;50.906;4.438;2022-08-05T13:43:09;1.00;;;1.00;;
19905;SDS011;10115;50.906;4.438;2022-08-05T13:45:35;1.70;;;1.47;;
19905;SDS011;10115;50.906;4.438;2022-08-05T13:48:01;1.87;;;1.20;;
19905;SDS011;10115;50.906;4.438;2022-08-05T13:50:27;1.13;;;1.10;;
19905;SDS011;10115;50.906;4.438;2022-08-05T13:52:52;1.70;;;1.20;;
19905;SDS011;10115;50.906;4.438;2022-08-05T13:55:18;1.40;;;1.00;;
19905;SDS011;10115;50.906;4.438;2022-08-05T13:57:44;1.40;;;1.30;;
19905;SDS011;10115;50.906;4.438;2022-08-05T14:00:09;1.33;;;1.00;;
19905;SDS011;10115;50.906;4.438;2022-08-05T14:02:35;3.70;;;0.90;;
19905;SDS011;10115;50.906;4.438;2022-08-05T14:05:01;1.57;;;1.47;;
19905;SDS011;10115;50.906;4.438;2022-08-05T14:07:41;1.10;;;1.10;;
19905;SDS011;10115;50.906;4.438;2022-08-05T14:10:16;1.90;;;1.20;;
19905;SDS011;10115;50.906;4.438;2022-08-05T14:12:44;1.00;;;1.00;;
19905;SDS011;10115;50.906;4.438;2022-08-05T14:15:10;2.90;;;1.37;;
19905;SDS011;10115;50.906;4.438;2022-08-05T14:17:36;1.50;;;1.40;;
19905;SDS011;10115;50.906;4.438;2022-08-05T14:20:03;1.33;;;1.00;;
19905;SDS011;10115;50.906;4.438;2022-08-05T14:22:31;3.57;;;1.50;;
19905;SDS011;10115;50.906;4.438;2022-08-05T14:24:57;2.80;;;1.02;;
19905;SDS011;10115;50.906;4.438;2022-08-05T14:27:23;1.05;;;1.05;;
19905;SDS011;10115;50.906;4.438;2022-08-05T14:29:49;2.70;;;0.90;;
19905;SDS011;10115;50.906;4.438;2022-08-05T14:32:15;0.90;;;0.90;;
19905;SDS011;10115;50.906;4.438;2022-08-05T14:34:41;1.42;;;1.38;;
19905;SDS011;10115;50.906;4.438;2022-08-05T14:37:07;2.20;;;1.23;;
19905;SDS011;10115;50.906;4.438;2022-08-05T14:39:32;0.80;;;0.80;;
19905;SDS011;10115;50.906;4.438;2022-08-05T14:41:58;2.63;;;1.38;;
19905;SDS011;10115;50.906;4.438;2022-08-05T14:44:24;1.00;;;1.00;;
19905;SDS011;10115;50.906;4.438;2022-08-05T14:46:50;1.17;;;1.00;;
19905;SDS011;10115;50.906;4.438;2022-08-05T14:49:15;2.45;;;0.95;;
19905;SDS011;10115;50.906;4.438;2022-08-05T14:51:41;1.47;;;1.43;;
19905;SDS011;10115;50.906;4.438;2022-08-05T14:54:07;1.10;;;1.10;;
19905;SDS011;10115;50.906;4.438;2022-08-05T14:56:33;2.37;;;1.30;;
19905;SDS011;10115;50.906;4.438;2022-08-05T14:58:59;1.40;;;1.30;;
19905;SDS011;10115;50.906;4.438;2022-08-05T15:01:25;3.70;;;1.13;;
19905;SDS011;10115;50.906;4.438;2022-08-05T15:03:51;5.20;;;1.50;;
19905;SDS011;10115;50.906;4.438;2022-08-05T15:06:17;2.43;;;1.30;;
19905;SDS011;10115;50.906;4.438;2022-08-05T15:08:42;1.17;;;1.17;;
19905;SDS011;10115;50.906;4.438;2022-08-05T15:11:08;1.57;;;1.47;;
19905;SDS011;10115;50.906;4.438;2022-08-05T15:13:34;2.40;;;1.20;;
19905;SDS011;10115;50.906;4.438;2022-08-05T15:16:00;1.20;;;1.20;;
19905;SDS011;10115;50.906;4.438;2022-08-05T15:18:26;6.33;;;1.60;;
19905;SDS011;10115;50.906;4.438;2022-08-05T15:20:52;2.10;;;1.30;;
19905;SDS011;10115;50.906;4.438;2022-08-05T15:23:18;1.43;;;1.33;;
19905;SDS011;10115;50.906;4.438;2022-08-05T15:25:44;1.20;;;1.20;;
19905;SDS011;10115;50.906;4.438;2022-08-05T15:28:10;1.17;;;1.17;;
19905;SDS011;10115;50.906;4.438;2022-08-05T15:30:37;1.10;;;1.10;;
19905;SDS011;10115;50.906;4.438;2022-08-05T15:33:03;1.00;;;1.00;;
19905;SDS011;10115;50.906;4.438;2022-08-05T15:35:29;1.13;;;1.13;;
19905;SDS011;10115;50.906;4.438;2022-08-05T15:37:55;0.80;;;0.80;;
19905;SDS011;10115;50.906;4.438;2022-08-05T15:40:20;2.80;;;1.17;;
19905;SDS011;10115;50.906;4.438;2022-08-05T15:42:47;2.15;;;1.05;;